Time;durP1;ratioP1;P1;durP2;ratioP2;P2;SDS_P1;SDS_P2;PMS_P1;PMS_P2;Temp;Humidity;BMP_temperature;BMP_pressure;BME280_temperature;BME280_humidity;BME280_pressure;Samples;Min_cycle;Max_cycle;Signal;HPM_P1;HPM_P2
2023/12/17 00:00:39;;;;;;;12.97;3.60;;;9.60;99.90;;;;;;5073136;28;20056;-68
2023/12/17 00:03:05;;;;;;;10.90;4.07;;;9.60;99.90;;;;;;5087020;28;20058;-68
2023/12/17 00:05:30;;;;;;;6.43;3.03;;;9.60;99.90;;;;;;5083880;28;20529;-68
2023/12/17 00:07:56;;;;;;;7.23;3.87;;;9.70;99.90;;;;;;5083090;28;20097;-68
2023/12/17 00:10:22;;;;;;;14.60;4.53;;;9.60;99.90;;;;;;5082753;28;20044;-68
2023/12/17 00:12:47;;;;;;;15.45;3.80;;;9.60;99.90;;;;;;5078738;28;20112;-68
2023/12/17 00:15:13;;;;;;;11.87;4.03;;;9.60;99.90;;;;;;5080471;28;20075;-69
2023/12/17 00:17:38;;;;;;;7.97;3.10;;;9.50;99.90;;;;;;5083185;28;20409;-68
2023/12/17 00:20:05;;;;;;;14.50;3.17;;;9.60;99.90;;;;;;5076772;28;20044;-75
2023/12/17 00:22:30;;;;;;;11.13;3.63;;;9.60;99.90;;;;;;5081874;28;20097;-68
2023/12/17 00:24:56;;;;;;;11.07;4.10;;;9.60;99.90;;;;;;5079735;28;20672;-68
2023/12/17 00:27:21;;;;;;;6.30;3.27;;;9.60;99.90;;;;;;5082127;28;20127;-68
2023/12/17 00:29:47;;;;;;;6.80;3.07;;;9.50;99.90;;;;;;5080713;28;20032;-69
2023/12/17 00:32:13;;;;;;;9.32;4.00;;;9.60;99.90;;;;;;5078635;28;20071;-68
2023/12/17 00:34:38;;;;;;;8.73;3.33;;;9.60;99.90;;;;;;5078499;28;20168;-68
2023/12/17 00:37:04;;;;;;;10.90;3.73;;;9.60;99.90;;;;;;5082216;28;20040;-68
2023/12/17 00:39:30;;;;;;;8.40;3.20;;;9.50;99.90;;;;;;5080247;28;20035;-68
2023/12/17 00:41:55;;;;;;;8.43;3.20;;;9.60;99.90;;;;;;5081314;28;20036;-68
2023/12/17 00:44:21;;;;;;;8.60;3.07;;;9.60;99.90;;;;;;5078492;28;20157;-68
2023/12/17 00:46:46;;;;;;;7.87;3.10;;;9.60;99.90;;;;;;5079880;28;20134;-68
2023/12/17 00:49:12;;;;;;;11.20;3.67;;;9.60;99.90;;;;;;5081395;28;20047;-68
2023/12/17 00:51:38;;;;;;;7.60;3.43;;;9.60;99.90;;;;;;5079620;28;20438;-68
2023/12/17 00:54:04;;;;;;;5.40;2.80;;;9.60;99.90;;;;;;5082484;28;20040;-68
2023/12/17 00:56:30;;;;;;;8.37;3.27;;;9.60;99.90;;;;;;5079600;28;20512;-68
2023/12/17 00:58:55;;;;;;;7.47;3.42;;;9.60;99.90;;;;;;5082564;28;20323;-68
2023/12/17 01:01:21;;;;;;;9.07;3.10;;;9.60;99.90;;;;;;5080564;28;20108;-68
2023/12/17 01:03:46;;;;;;;10.18;3.05;;;9.60;99.90;;;;;;5069442;28;20051;-68
2023/12/17 01:06:12;;;;;;;4.33;3.23;;;9.60;99.90;;;;;;5081215;28;20113;-68
2023/12/17 01:08:38;;;;;;;5.60;3.03;;;9.60;99.90;;;;;;5080911;28;20487;-67
2023/12/17 01:11:04;;;;;;;6.32;3.08;;;9.60;99.90;;;;;;5080371;28;20039;-68
2023/12/17 01:13:29;;;;;;;8.33;2.80;;;9.60;99.90;;;;;;5079021;28;20324;-68
2023/12/17 01:15:55;;;;;;;8.90;3.00;;;9.70;99.90;;;;;;5075738;28;20116;-68
2023/12/17 01:18:24;;;;;;;12.23;4.03;;;9.60;99.90;;;;;;5079773;28;20035;-68
2023/12/17 01:20:50;;;;;;;9.88;2.75;;;9.60;99.90;;;;;;5068633;28;20327;-68
2023/12/17 01:23:33;;;;;;;13.20;3.08;;;9.60;99.90;;;;;;5078628;28;20308;-70
2023/12/17 01:26:16;;;;;;;7.78;3.00;;;9.70;99.90;;;;;;5067742;28;20044;-68
2023/12/17 01:28:46;;;;;;;6.63;2.70;;;9.70;99.90;;;;;;5065022;28;20070;-68
2023/12/17 01:31:25;;;;;;;4.90;2.58;;;9.70;99.90;;;;;;5062153;28;20032;-68
2023/12/17 01:34:20;;;;;;;6.53;3.10;;;9.70;99.90;;;;;;5080887;28;20079;-71
2023/12/17 01:36:49;;;;;;;7.80;2.67;;;9.70;99.90;;;;;;5083717;28;20059;-69
2023/12/17 01:39:36;;;;;;;10.90;3.08;;;9.70;99.90;;;;;;5082477;28;20117;-69
2023/12/17 01:42:22;;;;;;;6.65;3.10;;;9.70;99.90;;;;;;5082563;28;20144;-69
2023/12/17 01:45:01;;;;;;;7.53;2.72;;;9.70;99.90;;;;;;5066516;28;20048;-68
2023/12/17 01:47:35;;;;;;;13.15;3.35;;;9.70;99.90;;;;;;5080631;28;20403;-70
2023/12/17 01:50:10;;;;;;;10.68;3.35;;;9.70;99.90;;;;;;5086909;28;20118;-70
2023/12/17 01:52:39;;;;;;;5.88;3.08;;;9.70;99.90;;;;;;5068496;28;20221;-67
2023/12/17 01:55:13;;;;;;;6.47;2.72;;;9.80;99.90;;;;;;5084688;28;20032;-68
2023/12/17 01:57:42;;;;;;;11.68;3.47;;;9.70;99.90;;;;;;5083119;28;20041;-68
2023/12/17 02:00:14;;;;;;;9.18;2.92;;;9.70;99.90;;;;;;5085111;28;20046;-68
2023/12/17 02:02:44;;;;;;;13.82;3.83;;;9.70;99.90;;;;;;5085168;28;20274;-68
2023/12/17 02:05:11;;;;;;;6.53;3.13;;;9.70;99.90;;;;;;5069036;28;20109;-68
2023/12/17 02:07:40;;;;;;;9.75;2.65;;;9.70;99.90;;;;;;5071867;28;20071;-69
2023/12/17 02:10:14;;;;;;;6.95;2.90;;;9.70;99.90;;;;;;5085266;28;20048;-69
2023/12/17 02:12:47;;;;;;;12.27;3.03;;;9.70;99.90;;;;;;5083070;28;20079;-69
2023/12/17 02:15:23;;;;;;;9.50;3.35;;;9.70;99.90;;;;;;5071708;28;20039;-68
2023/12/17 02:18:07;;;;;;;8.52;2.92;;;9.70;99.90;;;;;;5087436;28;20921;-68
2023/12/17 02:20:37;;;;;;;14.60;3.15;;;9.70;99.90;;;;;;5085254;28;20134;-68
2023/12/17 02:23:22;;;;;;;6.15;3.05;;;9.70;99.90;;;;;;5085986;28;20071;-68
2023/12/17 02:26:05;;;;;;;6.95;2.78;;;9.70;99.90;;;;;;5078176;28;20040;-70
2023/12/17 02:28:58;;;;;;;7.75;3.35;;;9.70;99.90;;;;;;5080240;28;20064;-68
2023/12/17 02:31:43;;;;;;;10.82;3.65;;;9.70;99.90;;;;;;5088657;28;20305;-68
2023/12/17 02:34:11;;;;;;;11.20;3.20;;;9.80;99.90;;;;;;5072237;28;20056;-68
2023/12/17 02:36:54;;;;;;;5.30;2.83;;;9.80;99.90;;;;;;5069688;28;20123;-68
2023/12/17 02:39:24;;;;;;;7.05;2.90;;;9.70;99.90;;;;;;5069402;28;20109;-70
2023/12/17 02:41:58;;;;;;;6.82;3.05;;;9.70;99.90;;;;;;5085358;28;20056;-71
2023/12/17 02:44:25;;;;;;;9.35;3.53;;;9.70;99.90;;;;;;5086963;28;20044;-68
2023/12/17 02:46:53;;;;;;;7.47;3.30;;;9.70;99.90;;;;;;5086103;28;20044;-68
2023/12/17 02:49:36;;;;;;;;;;;9.70;99.90;;;;;;5063606;28;20040;-68
2023/12/17 02:52:07;;;;;;;7.05;3.30;;;9.60;99.90;;;;;;5071843;28;19927;-69
2023/12/17 02:54:48;;;;;;;6.85;3.40;;;9.60;99.90;;;;;;5088820;28;20044;-69
2023/12/17 02:57:30;;;;;;;12.68;3.65;;;9.60;99.90;;;;;;5080917;28;20412;-69
2023/12/17 03:00:07;;;;;;;10.20;2.95;;;9.60;99.90;;;;;;5006046;28;20036;-68
2023/12/17 03:02:40;;;;;;;11.45;2.88;;;9.50;99.90;;;;;;5049689;28;20047;-69
2023/12/17 03:05:13;;;;;;;7.55;3.03;;;9.50;99.90;;;;;;5070632;28;20036;-69
2023/12/17 03:07:52;;;;;;;14.68;3.60;;;9.50;99.90;;;;;;5089718;28;20165;-70
2023/12/17 03:10:34;;;;;;;10.13;3.53;;;9.50;99.90;;;;;;5082593;28;20046;-69
2023/12/17 03:13:04;;;;;;;7.13;2.85;;;9.50;99.90;;;;;;5069011;28;20048;-69
2023/12/17 03:15:45;;;;;;;;;;;;;;;;;;;;;
2023/12/17 03:18:23;;;;;;;8.10;3.17;;;9.50;99.90;;;;;;5077784;28;20036;-68
2023/12/17 03:20:51;;;;;;;8.25;3.00;;;9.50;99.90;;;;;;5071420;28;20051;-68
2023/12/17 03:23:17;;;;;;;5.18;3.08;;;9.50;99.90;;;;;;5082673;28;20043;-69
2023/12/17 03:28:41;;;;;;;8.65;3.45;;;9.50;99.90;;;;;;5077707;28;20070;-68
2023/12/17 03:31:07;;;;;;;9.77;3.13;;;9.50;99.90;;;;;;5080442;28;20036;-68
2023/12/17 03:33:32;;;;;;;8.33;3.37;;;9.50;99.90;;;;;;5076362;28;20047;-69
2023/12/17 03:35:59;;;;;;;8.80;3.30;;;9.50;99.90;;;;;;5087265;28;20048;-69
2023/12/17 03:38:30;;;;;;;14.75;4.57;;;9.50;99.90;;;;;;5089860;28;20058;-69
2023/12/17 03:40:57;;;;;;;12.00;3.65;;;9.50;99.90;;;;;;5067052;28;20056;-69
2023/12/17 03:43:22;;;;;;;9.77;3.80;;;9.50;99.90;;;;;;5061949;28;20062;-69
2023/12/17 03:45:48;;;;;;;11.40;4.00;;;9.50;99.90;;;;;;5077854;28;20044;-69
2023/12/17 03:48:13;;;;;;;9.33;3.90;;;9.50;99.90;;;;;;5073495;28;20044;-68
2023/12/17 03:50:39;;;;;;;9.37;3.37;;;9.50;99.90;;;;;;5080178;28;20119;-69
2023/12/17 03:53:10;;;;;;;13.00;4.07;;;9.50;99.90;;;;;;5083110;28;20036;-69
2023/12/17 03:55:37;;;;;;;8.20;3.35;;;9.60;99.90;;;;;;5084636;28;20433;-69
2023/12/17 03:58:03;;;;;;;12.35;3.78;;;9.50;99.90;;;;;;5080587;28;20060;-69
2023/12/17 04:00:28;;;;;;;8.98;3.47;;;9.50;99.90;;;;;;5080833;28;20045;-68
2023/12/17 04:02:54;;;;;;;12.15;4.10;;;9.50;99.90;;;;;;5061704;28;20331;-69
2023/12/17 04:05:20;;;;;;;11.33;3.67;;;9.50;99.90;;;;;;5084347;28;20028;-69
2023/12/17 04:07:46;;;;;;;7.93;3.73;;;9.50;99.90;;;;;;5084817;28;20047;-68
2023/12/17 04:10:11;;;;;;;7.33;3.43;;;9.50;99.90;;;;;;5083360;28;20064;-68
2023/12/17 04:12:37;;;;;;;7.57;3.90;;;9.50;99.90;;;;;;5078811;28;20040;-68
2023/12/17 04:15:03;;;;;;;11.23;4.07;;;9.50;99.90;;;;;;5080212;28;20434;-69
2023/12/17 04:17:30;;;;;;;12.52;3.60;;;9.50;99.90;;;;;;5085749;28;20036;-68
2023/12/17 04:19:56;;;;;;;9.70;4.20;;;9.50;99.90;;;;;;5082860;28;20044;-69
2023/12/17 04:22:21;;;;;;;9.77;3.33;;;9.50;99.90;;;;;;5080448;28;20411;-69
2023/12/17 04:24:47;;;;;;;8.70;3.70;;;9.40;99.90;;;;;;5085719;28;20079;-69
2023/12/17 04:27:13;;;;;;;9.60;3.50;;;9.40;99.90;;;;;;5084014;28;20511;-68
2023/12/17 04:29:38;;;;;;;8.57;3.50;;;9.40;99.90;;;;;;5079899;28;20093;-69
2023/12/17 04:32:04;;;;;;;9.87;3.67;;;9.40;99.90;;;;;;5061378;28;20344;-67
2023/12/17 04:34:30;;;;;;;12.18;4.05;;;9.30;99.90;;;;;;5073366;28;20032;-67
2023/12/17 04:36:59;;;;;;;11.60;3.87;;;9.30;99.90;;;;;;5077137;28;20500;-70
2023/12/17 04:39:28;;;;;;;11.98;3.53;;;9.40;99.90;;;;;;5081209;28;20040;-70
2023/12/17 04:41:54;;;;;;;9.75;4.82;;;9.30;99.90;;;;;;5084651;28;20110;-68
2023/12/17 04:44:20;;;;;;;7.57;3.47;;;9.30;99.90;;;;;;5081303;28;20089;-68
2023/12/17 04:46:45;;;;;;;10.43;4.23;;;9.30;99.90;;;;;;5078050;28;20032;-68
2023/12/17 04:49:11;;;;;;;8.37;4.03;;;9.30;99.90;;;;;;5076772;28;20058;-70
2023/12/17 04:51:36;;;;;;;10.10;4.47;;;9.30;99.90;;;;;;5075719;28;20496;-68
2023/12/17 04:54:02;;;;;;;6.30;3.20;;;9.30;99.90;;;;;;5080839;28;20118;-68
2023/12/17 04:56:28;;;;;;;14.70;4.57;;;9.30;99.90;;;;;;5078251;28;20035;-68
2023/12/17 04:58:53;;;;;;;9.40;3.97;;;9.30;99.90;;;;;;5085399;28;20042;-68
2023/12/17 05:01:19;;;;;;;11.57;5.37;;;9.30;99.90;;;;;;5076053;28;20036;-68
2023/12/17 05:03:45;;;;;;;11.33;3.97;;;9.30;99.90;;;;;;5084187;28;20039;-68
2023/12/17 05:06:10;;;;;;;14.67;4.60;;;9.30;99.90;;;;;;5080712;28;20044;-68
2023/12/17 05:08:36;;;;;;;12.57;4.33;;;9.30;99.90;;;;;;5083991;28;20183;-69
2023/12/17 05:11:01;;;;;;;12.80;4.53;;;9.30;99.90;;;;;;5075605;28;20044;-69
2023/12/17 05:13:27;;;;;;;7.83;3.97;;;9.30;99.90;;;;;;5082968;28;20136;-68
2023/12/17 05:15:53;;;;;;;11.53;4.37;;;9.30;99.90;;;;;;5077936;28;20915;-68
2023/12/17 05:18:18;;;;;;;15.10;4.37;;;9.30;99.90;;;;;;5081136;28;20400;-68
2023/12/17 05:20:48;;;;;;;7.30;4.37;;;9.30;99.90;;;;;;5080793;28;20647;-68
2023/12/17 05:23:13;;;;;;;11.73;4.45;;;9.30;99.90;;;;;;5081168;28;20044;-68
2023/12/17 05:25:40;;;;;;;12.40;4.60;;;9.30;99.90;;;;;;5084422;28;20373;-68
2023/12/17 05:28:08;;;;;;;8.18;4.30;;;9.30;99.90;;;;;;5082727;28;20067;-69
2023/12/17 05:30:37;;;;;;;12.23;4.25;;;9.30;99.90;;;;;;5077996;28;20129;-68
2023/12/17 05:33:03;;;;;;;13.95;5.00;;;9.30;99.90;;;;;;5081316;28;20043;-68
2023/12/17 05:35:28;;;;;;;13.03;4.67;;;9.20;99.90;;;;;;5080990;28;20345;-68
2023/12/17 05:37:54;;;;;;;10.53;4.53;;;9.20;99.90;;;;;;5081185;28;20048;-68
2023/12/17 05:40:20;;;;;;;9.23;4.33;;;9.30;99.90;;;;;;5068850;28;20043;-68
2023/12/17 05:42:45;;;;;;;9.77;4.30;;;9.30;99.90;;;;;;5083963;28;20040;-68
2023/12/17 05:45:11;;;;;;;10.30;4.30;;;9.30;99.90;;;;;;5089001;28;20123;-68
2023/12/17 05:47:38;;;;;;;8.80;4.53;;;9.30;99.90;;;;;;5081879;28;20432;-68
2023/12/17 05:50:05;;;;;;;9.55;4.28;;;9.30;99.90;;;;;;5085122;28;20573;-68
2023/12/17 05:52:30;;;;;;;8.07;4.30;;;9.30;99.90;;;;;;5078829;28;20040;-68
2023/12/17 05:54:56;;;;;;;12.37;4.70;;;9.30;99.90;;;;;;5092279;28;20585;-68
2023/12/17 05:57:21;;;;;;;14.10;4.50;;;9.30;99.90;;;;;;5086144;28;20024;-68
2023/12/17 05:59:47;;;;;;;10.77;4.17;;;9.30;99.90;;;;;;5086384;28;20120;-68
2023/12/17 06:02:13;;;;;;;11.55;4.68;;;9.30;99.90;;;;;;5085143;28;20036;-68
2023/12/17 06:04:38;;;;;;;14.13;4.80;;;9.30;99.90;;;;;;5087004;28;20036;-68
2023/12/17 06:07:04;;;;;;;8.80;4.57;;;9.30;99.90;;;;;;5085497;28;20048;-68
2023/12/17 06:09:30;;;;;;;12.10;4.63;;;9.40;99.90;;;;;;5080633;28;20047;-68
2023/12/17 06:11:57;;;;;;;12.80;4.55;;;9.30;99.90;;;;;;5086934;28;20392;-68
2023/12/17 06:14:23;;;;;;;12.82;4.82;;;9.30;99.90;;;;;;5087394;28;20044;-68
2023/12/17 06:16:49;;;;;;;12.35;4.85;;;9.40;99.90;;;;;;5084725;28;20454;-68
2023/12/17 06:19:15;;;;;;;12.57;4.20;;;9.30;99.90;;;;;;5084902;28;20051;-68
2023/12/17 06:21:41;;;;;;;9.40;4.57;;;9.30;99.90;;;;;;5082439;28;20741;-68
2023/12/17 06:24:07;;;;;;;13.75;4.68;;;9.30;99.90;;;;;;5087862;28;20123;-68
2023/12/17 06:26:35;;;;;;;10.18;4.63;;;9.30;99.90;;;;;;5082353;28;20070;-69
2023/12/17 06:29:01;;;;;;;18.80;4.85;;;9.30;99.90;;;;;;5068938;28;20381;-68
2023/12/17 06:31:26;;;;;;;9.90;4.33;;;9.30;99.90;;;;;;5078680;28;20371;-69
2023/12/17 06:33:55;;;;;;;8.50;4.23;;;9.30;99.90;;;;;;5088265;28;20296;-68
2023/12/17 06:36:20;;;;;;;10.55;4.72;;;9.30;99.90;;;;;;5084893;28;20120;-68
2023/12/17 06:38:47;;;;;;;15.07;4.77;;;9.30;99.90;;;;;;5082844;28;20450;-68
2023/12/17 06:41:13;;;;;;;8.57;4.13;;;9.30;99.90;;;;;;5083672;28;20086;-68
2023/12/17 06:43:42;;;;;;;11.95;4.78;;;9.30;99.90;;;;;;5077988;28;20075;-69
2023/12/17 06:46:09;;;;;;;11.73;5.22;;;9.30;99.90;;;;;;5079326;28;20447;-68
2023/12/17 06:48:35;;;;;;;10.73;5.38;;;9.30;99.90;;;;;;5089928;28;20044;-68
2023/12/17 06:51:01;;;;;;;16.30;6.50;;;9.30;99.90;;;;;;5088389;28;20131;-68
2023/12/17 06:53:27;;;;;;;10.27;6.07;;;9.30;99.90;;;;;;5085270;28;20032;-68
2023/12/17 06:55:53;;;;;;;12.23;5.55;;;9.30;99.90;;;;;;5085358;28;20085;-68
2023/12/17 06:58:18;;;;;;;16.97;5.77;;;9.30;99.90;;;;;;5083309;28;20036;-68
2023/12/17 07:00:44;;;;;;;11.23;5.60;;;9.30;99.90;;;;;;5083236;28;20115;-68
2023/12/17 07:03:09;;;;;;;13.60;5.83;;;9.30;99.90;;;;;;5081707;28;20601;-68
2023/12/17 07:05:35;;;;;;;15.30;5.93;;;9.30;99.90;;;;;;5083015;28;20035;-68
2023/12/17 07:08:01;;;;;;;15.57;5.47;;;9.40;99.90;;;;;;5078667;28;20044;-68
2023/12/17 07:10:26;;;;;;;13.83;5.67;;;9.30;99.90;;;;;;5079995;28;20097;-68
2023/12/17 07:12:52;;;;;;;12.40;6.00;;;9.30;99.90;;;;;;5078471;28;20058;-69
2023/12/17 07:15:18;;;;;;;13.83;6.93;;;9.30;99.90;;;;;;5081535;28;20051;-69
2023/12/17 07:17:44;;;;;;;14.30;6.25;;;9.30;99.90;;;;;;5082641;28;20040;-69
2023/12/17 07:20:10;;;;;;;15.05;6.13;;;9.30;99.90;;;;;;5080759;28;20036;-69
2023/12/17 07:22:36;;;;;;;18.52;6.53;;;9.30;99.90;;;;;;5090678;28;20111;-68
2023/12/17 07:25:03;;;;;;;17.45;7.00;;;9.30;99.90;;;;;;5083964;28;20135;-68
2023/12/17 07:27:29;;;;;;;17.48;6.55;;;9.30;99.90;;;;;;5080121;28;20492;-68
2023/12/17 07:29:54;;;;;;;17.30;6.47;;;9.30;99.90;;;;;;5080493;28;20048;-68
2023/12/17 07:32:20;;;;;;;13.33;5.53;;;9.30;99.90;;;;;;5088248;28;20042;-68
2023/12/17 07:34:46;;;;;;;13.57;5.50;;;9.30;99.90;;;;;;5087259;28;20054;-68
2023/12/17 07:37:12;;;;;;;20.77;6.83;;;9.30;99.90;;;;;;5078699;28;20390;-68
2023/12/17 07:39:37;;;;;;;10.40;4.97;;;9.30;99.90;;;;;;5081524;28;20040;-68
2023/12/17 07:42:03;;;;;;;14.17;5.60;;;9.30;99.90;;;;;;5082577;28;20052;-68
2023/12/17 07:44:30;;;;;;;12.30;5.05;;;9.30;99.90;;;;;;5081250;28;20071;-68
2023/12/17 07:46:56;;;;;;;11.65;4.85;;;9.30;99.90;;;;;;5081080;28;20154;-68
2023/12/17 07:49:22;;;;;;;14.68;5.30;;;9.30;99.90;;;;;;5080699;28;20048;-68
2023/12/17 07:51:49;;;;;;;10.35;5.30;;;9.30;99.90;;;;;;5083948;28;20092;-68
2023/12/17 07:54:15;;;;;;;11.90;5.07;;;9.30;99.90;;;;;;5086760;28;20035;-68
2023/12/17 07:56:41;;;;;;;10.40;4.80;;;9.30;99.90;;;;;;5082152;28;20590;-69
2023/12/17 07:59:06;;;;;;;11.93;4.50;;;9.20;99.90;;;;;;5084649;28;20177;-68
2023/12/17 08:01:33;;;;;;;15.87;5.40;;;9.30;99.90;;;;;;5076857;28;20068;-68
2023/12/17 08:03:59;;;;;;;11.18;5.10;;;9.30;99.90;;;;;;5081937;28;20055;-69
2023/12/17 08:06:25;;;;;;;11.03;4.70;;;9.10;99.90;;;;;;5079423;28;20044;-68
2023/12/17 08:08:52;;;;;;;16.10;4.73;;;9.20;99.90;;;;;;5082173;28;20123;-68
2023/12/17 08:11:17;;;;;;;14.10;4.40;;;9.20;99.90;;;;;;5082185;28;20504;-68
2023/12/17 08:13:44;;;;;;;12.77;4.67;;;9.20;99.90;;;;;;5079705;28;20036;-67
2023/12/17 08:16:10;;;;;;;8.88;4.15;;;9.20;99.90;;;;;;5078913;28;20036;-68
2023/12/17 08:18:35;;;;;;;10.52;4.85;;;9.20;99.90;;;;;;5083277;28;20411;-68
2023/12/17 08:21:02;;;;;;;12.60;4.80;;;9.20;99.90;;;;;;5085184;28;20573;-68
2023/12/17 08:23:27;;;;;;;;;;;9.20;99.90;;;;;;5065559;28;20338;-68
2023/12/17 08:25:54;;;;;;;8.57;4.55;;;9.20;99.90;;;;;;5074394;28;19916;-68
2023/12/17 08:28:20;;;;;;;;;;;9.20;99.90;;;;;;5080075;28;20123;-67
2023/12/17 08:30:46;;;;;;;11.43;5.22;;;9.20;99.90;;;;;;5082013;28;19998;-68
2023/12/17 08:33:12;;;;;;;13.40;5.85;;;9.30;99.90;;;;;;5079267;28;20126;-67
2023/12/17 08:35:38;;;;;;;20.88;6.07;;;9.20;99.90;;;;;;5077275;28;20048;-68
2023/12/17 08:38:06;;;;;;;14.73;6.97;;;9.20;99.90;;;;;;5075318;28;20093;-68
2023/12/17 08:40:39;;;;;;;15.68;6.72;;;9.20;99.90;;;;;;5083323;28;20043;-68
2023/12/17 08:43:06;;;;;;;12.32;5.88;;;9.20;99.90;;;;;;5080102;28;20522;-68
2023/12/17 08:45:33;;;;;;;16.10;6.20;;;9.20;99.90;;;;;;5065984;28;20048;-68
2023/12/17 08:47:59;;;;;;;;;;;9.20;99.90;;;;;;5086883;28;20040;-67
2023/12/17 08:50:25;;;;;;;13.27;5.38;;;9.20;99.90;;;;;;5083067;28;20307;-68
2023/12/17 08:52:51;;;;;;;16.70;5.28;;;9.20;99.90;;;;;;5079058;28;20043;-68
2023/12/17 08:55:16;;;;;;;17.15;6.10;;;9.20;99.90;;;;;;5079149;28;20048;-70
2023/12/17 08:57:42;;;;;;;12.77;5.53;;;9.20;99.90;;;;;;5081836;28;20263;-70
2023/12/17 09:00:09;;;;;;;17.00;6.17;;;9.20;99.90;;;;;;5079790;28;20154;-68
2023/12/17 09:02:34;;;;;;;;;;;9.20;99.90;;;;;;5087962;28;20272;-68
2023/12/17 09:05:03;;;;;;;11.68;5.18;;;9.20;99.90;;;;;;5083993;28;20006;-67
2023/12/17 09:07:28;;;;;;;21.80;5.43;;;9.20;99.90;;;;;;5078339;28;20055;-68
2023/12/17 09:09:54;;;;;;;14.53;5.20;;;9.30;99.90;;;;;;5081553;28;20051;-68
2023/12/17 09:12:20;;;;;;;16.63;5.67;;;9.30;99.90;;;;;;5073858;28;20047;-68
2023/12/17 09:14:45;;;;;;;16.67;5.97;;;9.20;99.90;;;;;;5078260;28;20452;-68
2023/12/17 09:17:11;;;;;;;11.93;5.57;;;9.30;99.90;;;;;;5080546;28;20281;-68
2023/12/17 09:19:37;;;;;;;13.65;5.25;;;9.30;99.90;;;;;;5085582;28;20329;-68
2023/12/17 09:22:03;;;;;;;21.52;6.25;;;9.30;99.90;;;;;;5082522;28;20422;-68
2023/12/17 09:24:29;;;;;;;15.05;4.80;;;9.30;99.90;;;;;;5077111;28;20042;-68
2023/12/17 09:26:57;;;;;;;21.45;5.90;;;9.40;99.90;;;;;;5078932;28;20047;-68
2023/12/17 09:29:23;;;;;;;16.05;5.47;;;9.40;99.90;;;;;;5081243;28;20481;-68
2023/12/17 09:31:49;;;;;;;18.05;5.10;;;9.30;99.90;;;;;;5076407;28;20419;-68
2023/12/17 09:34:15;;;;;;;23.80;5.10;;;9.40;99.90;;;;;;5074612;28;20040;-68
2023/12/17 09:36:43;;;;;;;20.27;4.47;;;9.30;99.90;;;;;;5082763;28;20032;-67
2023/12/17 09:39:09;;;;;;;11.68;5.47;;;9.40;99.90;;;;;;5079079;28;20036;-67
2023/12/17 09:41:35;;;;;;;16.42;5.35;;;9.40;99.90;;;;;;5080223;28;20036;-68
2023/12/17 09:44:03;;;;;;;14.05;4.22;;;9.40;99.90;;;;;;5083053;28;20496;-68
2023/12/17 09:46:29;;;;;;;18.55;4.78;;;9.40;99.90;;;;;;5082319;28;20054;-68
2023/12/17 09:48:57;;;;;;;13.20;4.97;;;9.40;99.90;;;;;;5079143;28;20401;-68
2023/12/17 09:51:24;;;;;;;15.10;4.72;;;9.40;99.90;;;;;;5085852;28;20044;-68
2023/12/17 09:53:50;;;;;;;11.30;4.75;;;9.40;99.90;;;;;;5075928;28;20536;-68
2023/12/17 09:56:16;;;;;;;17.13;5.97;;;9.40;99.90;;;;;;5083685;28;20115;-68
2023/12/17 09:58:41;;;;;;;21.50;5.97;;;9.30;99.90;;;;;;5085506;28;20488;-68
2023/12/17 10:01:07;;;;;;;18.83;7.13;;;9.40;99.90;;;;;;5078555;28;20048;-68
2023/12/17 10:03:33;;;;;;;17.27;7.73;;;9.40;99.90;;;;;;5081116;28;20471;-68
2023/12/17 10:05:59;;;;;;;18.23;8.00;;;9.30;99.90;;;;;;5078074;28;20105;-68
2023/12/17 10:08:25;;;;;;;20.67;8.23;;;9.40;99.90;;;;;;5080113;28;20508;-68
2023/12/17 10:10:51;;;;;;;32.87;9.17;;;9.40;99.90;;;;;;5082163;28;20172;-68
2023/12/17 10:13:18;;;;;;;22.50;9.30;;;9.40;99.90;;;;;;5077693;28;20033;-68
2023/12/17 10:15:56;;;;;;;22.33;9.43;;;9.40;99.90;;;;;;5079217;28;20094;-68
2023/12/17 10:18:22;;;;;;;19.00;9.07;;;9.40;99.90;;;;;;5081272;28;20119;-67
2023/12/17 10:20:53;;;;;;;;;;;9.40;99.90;;;;;;5079865;28;20146;-68
2023/12/17 10:23:19;;;;;;;21.48;9.40;;;9.30;99.90;;;;;;5082510;28;19959;-68
2023/12/17 10:25:45;;;;;;;25.70;10.33;;;9.40;99.90;;;;;;5082531;28;20072;-68
2023/12/17 10:28:11;;;;;;;17.23;9.23;;;9.40;99.90;;;;;;5083812;28;20036;-67
2023/12/17 10:30:38;;;;;;;17.95;8.43;;;9.30;99.90;;;;;;5082532;28;20044;-68
2023/12/17 10:33:05;;;;;;;;;;;9.40;99.90;;;;;;5096606;28;20400;-68
2023/12/17 10:35:31;;;;;;;21.90;8.73;;;9.40;99.90;;;;;;5082753;28;20346;-68
2023/12/17 10:38:02;;;;;;;23.63;8.90;;;9.40;99.90;;;;;;5085043;28;20054;-68
2023/12/17 10:40:28;;;;;;;26.35;11.00;;;9.40;99.90;;;;;;5072348;28;20044;-68
2023/12/17 10:42:58;;;;;;;;;;;9.40;99.90;;;;;;5084487;28;20119;-68
2023/12/17 10:45:25;;;;;;;24.45;9.68;;;9.40;99.90;;;;;;5082736;28;20372;-68
2023/12/17 10:47:52;;;;;;;21.17;11.20;;;9.30;99.90;;;;;;5087280;28;20043;-68
2023/12/17 10:50:22;;;;;;;29.17;11.18;;;9.40;99.90;;;;;;5083281;28;20453;-68
2023/12/17 10:52:48;;;;;;;25.88;9.95;;;9.30;99.90;;;;;;5083782;28;20037;-68
2023/12/17 10:55:15;;;;;;;20.27;10.52;;;9.30;99.90;;;;;;5087196;28;20035;-68
2023/12/17 10:57:45;;;;;;;22.65;10.77;;;9.40;99.90;;;;;;5083986;28;20451;-68
2023/12/17 11:00:12;;;;;;;25.67;10.07;;;9.30;99.90;;;;;;5086162;28;20044;-67
2023/12/17 11:02:39;;;;;;;23.05;10.02;;;9.40;99.90;;;;;;5082705;28;20044;-68
2023/12/17 11:05:05;;;;;;;22.42;9.90;;;9.40;99.90;;;;;;5077177;28;20079;-68
2023/12/17 11:07:31;;;;;;;21.00;10.52;;;9.40;99.90;;;;;;5080110;28;20130;-68
2023/12/17 11:09:58;;;;;;;18.17;9.68;;;9.40;99.90;;;;;;5083688;28;20412;-68
2023/12/17 11:12:25;;;;;;;26.85;11.05;;;9.40;99.90;;;;;;5085390;28;20036;-68
2023/12/17 11:14:51;;;;;;;17.33;9.95;;;9.40;99.90;;;;;;5078976;28;20726;-68
2023/12/17 11:17:17;;;;;;;21.60;10.65;;;9.40;99.90;;;;;;5083421;28;20089;-68
2023/12/17 11:20:03;;;;;;;23.58;10.98;;;9.40;99.90;;;;;;5086769;28;20223;-68
2023/12/17 11:22:33;;;;;;;21.67;11.02;;;9.40;99.90;;;;;;5074345;28;20272;-68
2023/12/17 11:24:58;;;;;;;21.77;10.23;;;9.40;99.90;;;;;;5081117;28;20036;-68
2023/12/17 11:27:30;;;;;;;22.43;11.33;;;9.40;99.90;;;;;;5078544;28;20092;-70
2023/12/17 11:29:56;;;;;;;29.90;11.35;;;9.40;99.90;;;;;;5079311;28;20043;-69
2023/12/17 11:32:29;;;;;;;20.75;9.25;;;9.40;99.90;;;;;;5072396;28;20041;-69
2023/12/17 11:34:57;;;;;;;21.23;10.63;;;9.50;99.90;;;;;;5077781;28;20047;-73
2023/12/17 11:37:24;;;;;;;19.00;8.63;;;9.40;99.90;;;;;;5080545;28;20114;-68
2023/12/17 11:39:51;;;;;;;17.13;8.75;;;9.50;99.90;;;;;;5079607;28;20042;-68
2023/12/17 11:42:18;;;;;;;17.63;9.35;;;9.50;99.90;;;;;;5078510;28;20068;-68
2023/12/17 11:44:44;;;;;;;18.98;9.82;;;9.50;99.90;;;;;;5094584;27;20048;-68
2023/12/17 11:47:11;;;;;;;22.63;9.90;;;9.50;99.90;;;;;;5082552;28;20068;-68
2023/12/17 11:49:37;;;;;;;16.40;9.38;;;9.50;99.90;;;;;;5075775;28;20053;-68
2023/12/17 11:52:13;;;;;;;21.58;9.68;;;9.50;99.90;;;;;;5080926;28;20027;-68
2023/12/17 11:54:40;;;;;;;28.98;10.68;;;9.50;99.90;;;;;;5081731;28;20122;-68
2023/12/17 11:57:23;;;;;;;15.45;9.27;;;9.50;99.90;;;;;;5078255;28;20036;-68
2023/12/17 11:59:50;;;;;;;21.00;9.73;;;9.50;99.90;;;;;;5078993;28;20037;-68
2023/12/17 12:02:22;;;;;;;17.63;9.40;;;9.50;99.90;;;;;;5079152;28;20600;-68
2023/12/17 12:04:50;;;;;;;18.70;9.77;;;9.50;99.90;;;;;;5080949;28;20045;-69
2023/12/17 12:07:20;;;;;;;18.35;10.55;;;9.50;99.90;;;;;;5090673;28;20043;-68
2023/12/17 12:09:46;;;;;;;26.05;10.50;;;9.50;99.90;;;;;;5083737;28;20051;-68
2023/12/17 12:12:16;;;;;;;17.98;10.25;;;9.50;99.90;;;;;;5081781;28;20458;-69
2023/12/17 12:14:44;;;;;;;19.63;9.60;;;9.50;99.90;;;;;;5079410;28;20123;-69
2023/12/17 12:17:42;;;;;;;21.55;10.73;;;9.50;99.90;;;;;;5081756;28;20043;-68
2023/12/17 12:20:12;;;;;;;25.13;11.25;;;9.50;99.90;;;;;;5063019;28;20126;-71
2023/12/17 12:22:45;;;;;;;26.52;10.70;;;9.50;99.90;;;;;;5078691;28;20044;-68
2023/12/17 12:25:12;;;;;;;26.75;10.73;;;9.40;99.90;;;;;;5078713;28;20047;-69
2023/12/17 12:27:43;;;;;;;21.05;11.05;;;9.40;99.90;;;;;;5066988;28;20032;-69
2023/12/17 12:30:24;;;;;;;22.20;11.68;;;9.50;99.90;;;;;;5076565;28;20044;-68
2023/12/17 12:32:50;;;;;;;22.63;10.63;;;9.40;99.90;;;;;;5076482;28;20040;-69
2023/12/17 12:35:29;;;;;;;27.43;12.47;;;9.40;99.90;;;;;;5080072;28;20049;-68
2023/12/17 12:37:55;;;;;;;22.83;11.10;;;9.40;99.90;;;;;;5073164;28;20054;-68
2023/12/17 12:40:32;;;;;;;22.88;12.18;;;9.40;99.90;;;;;;5079940;28;20044;-69
2023/12/17 12:43:02;;;;;;;24.50;12.63;;;9.40;99.90;;;;;;5077655;28;20040;-69
2023/12/17 12:45:28;;;;;;;23.33;11.73;;;9.40;99.90;;;;;;5058925;28;20101;-69
2023/12/17 12:47:53;;;;;;;21.63;10.93;;;9.40;99.90;;;;;;5078812;28;20048;-69
2023/12/17 12:50:19;;;;;;;20.10;11.33;;;9.40;99.90;;;;;;5078484;28;20621;-68
2023/12/17 12:52:44;;;;;;;20.97;10.50;;;9.40;99.90;;;;;;5079299;28;20159;-69
2023/12/17 12:55:13;;;;;;;27.00;12.77;;;9.40;99.90;;;;;;5077370;28;20043;-69
2023/12/17 12:57:38;;;;;;;27.52;12.68;;;9.30;99.90;;;;;;5068931;28;20123;-69
2023/12/17 13:00:04;;;;;;;28.57;11.90;;;9.30;99.90;;;;;;5075933;28;20131;-68